createdAt,value
2019-05-21T00:00:53.235Z,97.30
2019-05-21T00:01:58.010Z,97.40
2019-05-21T00:03:02.270Z,97.30
2019-05-21T00:04:07.031Z,97.30
2019-05-21T00:05:11.299Z,97.30
2019-05-21T00:06:16.080Z,97.30
2019-05-21T00:07:20.308Z,97.20
2019-05-21T00:08:25.080Z,97.10
2019-05-21T00:09:29.285Z,97.10
2019-05-21T00:10:34.014Z,97.20
2019-05-21T00:11:38.234Z,97.20
2019-05-21T00:12:43.009Z,97.40
2019-05-21T00:13:47.220Z,97.40
2019-05-21T00:14:52.017Z,97.30
2019-05-21T00:15:56.272Z,97.30
2019-05-21T00:17:01.059Z,97.30
2019-05-21T00:18:05.286Z,97.30
2019-05-21T00:19:10.051Z,97.30
2019-05-21T00:20:15.827Z,97.20
2019-05-21T00:21:20.627Z,97.40
2019-05-21T00:22:24.851Z,97.30
2019-05-21T00:23:29.622Z,97.30
2019-05-21T00:24:33.921Z,97.40
2019-05-21T00:25:38.756Z,97.30
2019-05-21T00:26:42.977Z,97.30
2019-05-21T00:27:47.757Z,97.30
2019-05-21T00:29:28.161Z,97.20
2019-05-21T00:31:09.109Z,97.30
2019-05-21T00:32:49.113Z,97.20
2019-05-21T00:34:43.244Z,97.10
2019-05-21T00:36:11.096Z,97.30
2019-05-21T00:37:51.519Z,97.30
2019-05-21T00:39:32.372Z,97.40
2019-05-21T00:41:12.607Z,97.50
2019-05-21T00:42:23.053Z,97.40
2019-05-21T00:43:43.747Z,97.30
2019-05-21T00:44:48.539Z,97.30
2019-05-21T00:45:52.746Z,97.40
2019-05-21T00:46:57.548Z,97.50
2019-05-21T00:48:01.774Z,97.60
2019-05-21T00:49:06.590Z,97.60
2019-05-21T00:50:10.806Z,97.60
2019-05-21T00:51:15.544Z,97.70
2019-05-21T00:52:19.768Z,97.80
2019-05-21T00:53:24.542Z,97.90
2019-05-21T00:54:28.772Z,97.90
2019-05-21T00:55:33.558Z,97.90
2019-05-21T00:56:37.798Z,97.90
2019-05-21T00:57:42.568Z,98.00
2019-05-21T00:58:46.787Z,97.90
2019-05-21T00:59:51.557Z,97.80
2019-05-21T01:00:55.830Z,97.90
2019-05-21T01:02:00.663Z,97.80
2019-05-21T01:03:04.896Z,98.00
2019-05-21T01:04:09.670Z,98.10
2019-05-21T01:05:13.902Z,98.10
2019-05-21T01:06:18.677Z,98.30
2019-05-21T01:07:22.934Z,98.10
2019-05-21T01:08:27.699Z,98.00
2019-05-21T01:09:31.958Z,98.10
2019-05-21T01:10:36.749Z,98.10
2019-05-21T01:11:40.970Z,98.10
2019-05-21T01:12:45.831Z,98.20
2019-05-21T01:13:50.008Z,98.20
2019-05-21T01:14:54.771Z,98.50
2019-05-21T01:15:58.986Z,98.20
2019-05-21T01:17:03.819Z,98.20
2019-05-21T01:18:08.047Z,98.30
2019-05-21T01:19:12.837Z,98.40
2019-05-21T01:20:17.060Z,98.40
2019-05-21T01:21:21.874Z,98.50
2019-05-21T01:22:26.135Z,98.50
2019-05-21T01:23:30.921Z,98.60
2019-05-21T01:24:35.143Z,98.60
2019-05-21T01:25:39.922Z,98.60
2019-05-21T01:26:44.135Z,98.70
2019-05-21T01:27:48.946Z,98.60
2019-05-21T01:28:53.176Z,98.60
2019-05-21T01:29:57.959Z,98.60
2019-05-21T01:31:02.197Z,98.60
2019-05-21T01:32:07.058Z,98.50
2019-05-21T01:33:11.294Z,98.60
2019-05-21T01:34:16.152Z,98.60
2019-05-21T01:35:20.339Z,98.50
2019-05-21T01:36:25.115Z,98.50
2019-05-21T01:37:29.376Z,98.40
2019-05-21T01:38:34.158Z,98.50
2019-05-21T01:39:38.381Z,98.50
2019-05-21T01:40:43.159Z,98.50
2019-05-21T01:41:47.399Z,98.40
2019-05-21T01:42:52.202Z,98.70
2019-05-21T01:43:56.511Z,98.50
2019-05-21T01:45:01.490Z,98.60
2019-05-21T01:46:05.818Z,98.60
2019-05-21T01:47:10.601Z,98.50
2019-05-21T01:48:14.860Z,98.60
2019-05-21T01:49:19.639Z,98.50
2019-05-21T01:50:23.880Z,98.50
2019-05-21T01:51:28.676Z,98.40
2019-05-21T01:52:32.902Z,98.50
2019-05-21T01:53:37.693Z,98.30
2019-05-21T01:54:41.912Z,98.40
2019-05-21T01:55:46.695Z,98.40
2019-05-21T01:56:50.918Z,98.40
2019-05-21T01:57:55.740Z,98.50
2019-05-21T01:58:59.964Z,98.40
2019-05-21T02:00:05.307Z,98.30
2019-05-21T02:01:09.525Z,98.20
2019-05-21T02:02:14.298Z,98.30
2019-05-21T02:03:18.587Z,98.30
2019-05-21T02:04:23.372Z,98.30
2019-05-21T02:05:33.169Z,98.40
2019-05-21T02:06:34.031Z,98.60
2019-05-21T02:07:38.305Z,98.30
2019-05-21T02:08:43.116Z,98.20
2019-05-21T02:09:59.527Z,98.30
2019-05-21T02:11:04.420Z,98.30
2019-05-21T02:12:10.728Z,98.30
2019-05-21T02:13:15.140Z,98.20
2019-05-21T02:14:19.372Z,98.20
2019-05-21T02:15:24.160Z,98.50
2019-05-21T02:16:28.379Z,98.40
2019-05-21T02:17:33.156Z,98.30
2019-05-21T02:18:37.410Z,98.30
2019-05-21T02:19:42.253Z,98.30
2019-05-21T02:20:46.484Z,98.40
2019-05-21T02:21:51.258Z,98.30
2019-05-21T02:22:55.421Z,98.40
2019-05-21T02:24:00.217Z,98.30
2019-05-21T02:25:05.099Z,98.40
2019-05-21T02:26:09.926Z,98.40
2019-05-21T02:27:14.152Z,98.40
2019-05-21T02:28:18.943Z,98.40
2019-05-21T02:29:23.183Z,98.70
2019-05-21T02:30:27.963Z,98.30
2019-05-21T02:31:32.186Z,98.30
2019-05-21T02:32:36.951Z,98.30
2019-05-21T02:33:41.256Z,98.30
2019-05-21T02:34:46.014Z,98.30
2019-05-21T02:35:54.185Z,98.30
2019-05-21T02:36:56.653Z,98.30
2019-05-21T02:38:00.867Z,98.30
2019-05-21T02:39:07.614Z,98.30
2019-05-21T02:40:11.854Z,98.30
2019-05-21T02:41:16.636Z,98.30
2019-05-21T02:42:20.847Z,98.50
2019-05-21T02:43:25.620Z,98.30
2019-05-21T02:44:29.901Z,98.30
2019-05-21T02:45:34.662Z,98.30
2019-05-21T02:46:38.876Z,98.30
2019-05-21T02:47:43.665Z,98.30
2019-05-21T02:48:47.882Z,98.30
2019-05-21T02:49:52.829Z,98.30
2019-05-21T02:50:57.073Z,98.30
2019-05-21T02:52:01.875Z,98.40
2019-05-21T02:53:06.134Z,98.40
2019-05-21T02:54:10.896Z,98.50
2019-05-21T02:55:15.148Z,98.30
2019-05-21T02:56:19.947Z,98.40
2019-05-21T02:57:27.288Z,98.30
2019-05-21T02:58:32.071Z,98.30
2019-05-21T02:59:36.339Z,98.30
2019-05-21T03:00:59.587Z,98.20
2019-05-21T03:02:19.516Z,98.30
2019-05-21T03:03:26.314Z,98.40
2019-05-21T03:04:30.535Z,98.30
2019-05-21T03:05:35.383Z,98.20
2019-05-21T03:06:39.646Z,98.30
2019-05-21T03:07:44.456Z,98.70
2019-05-21T03:08:48.675Z,98.40
2019-05-21T03:09:53.487Z,98.30
2019-05-21T03:10:57.714Z,98.40
2019-05-21T03:12:02.493Z,98.50
2019-05-21T03:13:06.698Z,98.50
2019-05-21T03:14:11.499Z,98.50
2019-05-21T03:15:15.750Z,98.50
2019-05-21T03:16:20.708Z,98.50
2019-05-21T03:17:24.942Z,98.60
2019-05-21T03:18:29.797Z,98.60
2019-05-21T03:19:34.140Z,98.70
2019-05-21T03:20:39.083Z,98.80
2019-05-21T03:21:43.350Z,99.10
2019-05-21T03:22:48.115Z,99.00
2019-05-21T03:23:52.467Z,99.30
2019-05-21T03:25:01.901Z,99.30
2019-05-21T03:26:03.157Z,99.40
2019-05-21T03:27:08.031Z,99.40
2019-05-21T03:28:12.320Z,99.30
2019-05-21T03:29:17.101Z,99.30
2019-05-21T03:30:21.369Z,99.30
2019-05-21T03:31:26.119Z,99.40
2019-05-21T03:32:30.433Z,99.30
2019-05-21T03:33:35.187Z,99.30
2019-05-21T03:34:39.403Z,99.30
2019-05-21T03:35:44.225Z,99.30
2019-05-21T03:36:48.460Z,99.50
2019-05-21T03:37:53.226Z,99.20
2019-05-21T03:38:57.453Z,99.30
2019-05-21T03:40:02.254Z,99.30
2019-05-21T03:41:06.524Z,99.30
2019-05-21T03:42:11.455Z,99.30
2019-05-21T03:43:15.681Z,99.30
2019-05-21T03:44:20.469Z,99.20
2019-05-21T03:45:24.716Z,99.60
2019-05-21T03:46:29.520Z,99.70
2019-05-21T03:47:33.748Z,99.20
2019-05-21T03:48:38.521Z,99.20
2019-05-21T03:49:42.747Z,99.50
2019-05-21T03:50:47.559Z,99.40
2019-05-21T03:51:51.855Z,99.40
2019-05-21T03:52:56.989Z,99.60
2019-05-21T03:54:01.197Z,99.60
2019-05-21T03:55:05.988Z,99.60
2019-05-21T03:56:10.276Z,99.90
2019-05-21T03:57:15.043Z,99.70
2019-05-21T03:58:19.479Z,99.60
2019-05-21T03:59:24.236Z,99.70
2019-05-21T04:00:28.456Z,99.40
2019-05-21T04:01:33.366Z,99.40
2019-05-21T04:02:37.746Z,99.60
2019-05-21T04:03:42.488Z,99.60
2019-05-21T04:04:46.785Z,99.60
2019-05-21T04:05:51.499Z,99.70
2019-05-21T04:06:55.800Z,99.70
2019-05-21T04:08:00.563Z,99.70
2019-05-21T04:09:06.268Z,99.70
2019-05-21T04:10:16.924Z,99.90
2019-05-21T04:11:21.182Z,99.90
2019-05-21T04:12:25.951Z,99.90
2019-05-21T04:13:30.224Z,99.90
2019-05-21T04:14:39.540Z,99.90
2019-05-21T04:16:05.512Z,99.90
2019-05-21T04:17:34.856Z,99.90
2019-05-21T04:18:45.471Z,99.90
2019-05-21T04:19:50.355Z,99.90
2019-05-21T04:20:54.720Z,99.90
2019-05-21T04:21:59.613Z,99.90
2019-05-21T04:23:04.054Z,99.90
2019-05-21T04:24:09.748Z,99.90
2019-05-21T04:25:14.030Z,99.90
2019-05-21T04:26:18.801Z,99.90
2019-05-21T04:27:24.173Z,99.90
2019-05-21T04:28:29.101Z,99.90
2019-05-21T04:29:33.523Z,99.90
2019-05-21T04:30:38.291Z,99.90
2019-05-21T04:31:42.737Z,99.90
2019-05-21T04:32:47.653Z,99.90
2019-05-21T04:33:51.877Z,99.90
2019-05-21T04:34:56.674Z,99.80
2019-05-21T04:36:00.883Z,99.90
2019-05-21T04:37:10.890Z,99.90
2019-05-21T04:38:11.661Z,99.90
2019-05-21T04:39:16.584Z,99.90
2019-05-21T04:40:20.851Z,99.90
2019-05-21T04:41:25.641Z,99.90
2019-05-21T04:42:29.875Z,99.90
2019-05-21T04:43:34.783Z,99.90
2019-05-21T04:44:38.997Z,99.90
2019-05-21T04:45:43.932Z,99.90
2019-05-21T04:46:48.173Z,99.80
2019-05-21T04:47:53.062Z,99.50
2019-05-21T04:48:57.404Z,99.70
2019-05-21T04:50:02.316Z,99.70
2019-05-21T04:51:06.566Z,99.60
2019-05-21T04:52:11.373Z,99.70
2019-05-21T04:53:15.619Z,99.70
2019-05-21T04:54:20.396Z,99.60
2019-05-21T04:55:24.764Z,99.60
2019-05-21T04:56:29.494Z,99.60
2019-05-21T04:57:37.181Z,99.70
2019-05-21T04:58:40.228Z,99.40
2019-05-21T04:59:44.437Z,99.60
2019-05-21T05:00:49.224Z,99.50
2019-05-21T05:01:53.725Z,99.60
2019-05-21T05:02:58.545Z,99.70
2019-05-21T05:04:02.785Z,99.50
2019-05-21T05:05:07.569Z,99.60
2019-05-21T05:06:11.785Z,99.60
2019-05-21T05:07:27.621Z,99.60
2019-05-21T05:08:22.495Z,99.70
2019-05-21T05:09:38.309Z,99.90
2019-05-21T05:10:58.226Z,99.70
2019-05-21T05:12:02.987Z,99.70
2019-05-21T05:13:07.239Z,99.70
2019-05-21T05:14:12.007Z,99.70
2019-05-21T05:15:16.537Z,99.70
2019-05-21T05:16:21.302Z,99.80
2019-05-21T05:17:25.528Z,99.70
2019-05-21T05:18:30.327Z,99.60
2019-05-21T05:19:34.565Z,99.80
2019-05-21T05:20:39.348Z,99.60
2019-05-21T05:21:43.567Z,99.70
2019-05-21T05:22:48.461Z,99.70
2019-05-21T05:23:52.718Z,99.70
2019-05-21T05:24:57.560Z,99.70
2019-05-21T05:26:01.787Z,99.80
2019-05-21T05:27:06.586Z,99.90
2019-05-21T05:28:10.830Z,99.80
2019-05-21T05:29:15.637Z,99.60
2019-05-21T05:30:19.879Z,99.60
2019-05-21T05:31:24.659Z,99.40
2019-05-21T05:32:28.892Z,99.50
2019-05-21T05:33:33.688Z,99.50
2019-05-21T05:34:37.899Z,99.70
2019-05-21T05:35:42.675Z,99.60
2019-05-21T05:36:46.891Z,99.40
2019-05-21T05:37:51.682Z,99.40
2019-05-21T05:38:55.927Z,99.30
2019-05-21T05:40:00.715Z,99.30
2019-05-21T05:41:04.937Z,99.20
2019-05-21T05:42:09.730Z,99.20
2019-05-21T05:43:13.959Z,99.40
2019-05-21T05:44:18.788Z,99.20
2019-05-21T05:45:23.008Z,99.10
2019-05-21T05:46:27.782Z,99.00
2019-05-21T05:47:32.034Z,99.40
2019-05-21T05:48:41.278Z,99.10
2019-05-21T05:49:48.535Z,99.00
2019-05-21T05:50:54.998Z,99.00
2019-05-21T05:51:59.216Z,99.00
2019-05-21T05:53:03.987Z,98.90
2019-05-21T05:54:08.188Z,98.90
2019-05-21T05:55:12.987Z,98.80
2019-05-21T05:56:17.217Z,98.80
2019-05-21T05:57:21.998Z,98.80
2019-05-21T05:58:26.216Z,98.90
2019-05-21T05:59:31.058Z,98.90
2019-05-21T06:00:35.287Z,98.90
2019-05-21T06:01:40.182Z,98.80
2019-05-21T06:02:44.411Z,98.70
2019-05-21T06:03:49.188Z,98.60
2019-05-21T06:04:53.464Z,98.60
2019-05-21T06:05:58.240Z,98.60
2019-05-21T06:07:02.458Z,98.50
2019-05-21T06:08:07.243Z,98.50
2019-05-21T06:09:11.503Z,98.30
2019-05-21T06:10:16.348Z,98.40
2019-05-21T06:11:20.611Z,98.30
2019-05-21T06:12:25.433Z,98.30
2019-05-21T06:13:29.612Z,98.20
2019-05-21T06:14:34.406Z,98.20
2019-05-21T06:15:38.635Z,98.10
2019-05-21T06:16:43.422Z,98.10
2019-05-21T06:17:47.638Z,98.40
2019-05-21T06:18:52.433Z,98.20
2019-05-21T06:19:56.817Z,98.50
2019-05-21T06:21:01.549Z,98.30
2019-05-21T06:22:05.801Z,98.30
2019-05-21T06:23:10.593Z,98.40
2019-05-21T06:24:14.832Z,98.40
2019-05-21T06:25:19.639Z,98.50
2019-05-21T06:26:23.859Z,98.50
2019-05-21T06:27:28.558Z,98.50
2019-05-21T06:28:32.781Z,98.50
2019-05-21T06:29:39.572Z,98.60
2019-05-21T06:30:43.583Z,98.70
2019-05-21T06:31:48.353Z,98.50
2019-05-21T06:32:52.576Z,98.50
2019-05-21T06:33:57.356Z,98.40
2019-05-21T06:35:01.617Z,98.50
2019-05-21T06:36:06.404Z,98.40
2019-05-21T06:37:10.653Z,98.60
2019-05-21T06:38:18.096Z,98.30
2019-05-21T06:39:21.332Z,98.00
2019-05-21T06:40:26.136Z,98.20
2019-05-21T06:41:30.354Z,98.30
2019-05-21T06:42:35.147Z,98.10
2019-05-21T06:43:39.378Z,98.20
2019-05-21T06:44:44.154Z,98.40
2019-05-21T06:45:48.384Z,98.10
2019-05-21T06:46:53.179Z,98.10
2019-05-21T06:47:57.327Z,98.00
2019-05-21T06:49:02.105Z,98.10
2019-05-21T06:50:06.375Z,98.10
2019-05-21T06:51:11.284Z,98.40
2019-05-21T06:52:15.520Z,97.80
2019-05-21T06:53:20.298Z,98.00
2019-05-21T06:54:24.527Z,97.70
2019-05-21T06:55:29.447Z,97.90
2019-05-21T06:56:33.675Z,98.00
2019-05-21T06:57:38.457Z,98.10
2019-05-21T06:58:42.810Z,97.90
2019-05-21T06:59:47.599Z,98.10
2019-05-21T07:00:51.823Z,98.00
2019-05-21T07:01:56.608Z,97.80
2019-05-21T07:03:00.831Z,97.90
2019-05-21T07:04:05.678Z,98.00
2019-05-21T07:05:09.856Z,97.90
2019-05-21T07:06:14.676Z,97.90
2019-05-21T07:07:18.917Z,98.10
2019-05-21T07:08:34.125Z,97.90
2019-05-21T07:09:29.573Z,98.00
2019-05-21T07:10:34.403Z,98.00
2019-05-21T07:11:38.664Z,98.00
2019-05-21T07:12:43.418Z,97.90
2019-05-21T07:13:47.661Z,98.20
2019-05-21T07:14:52.441Z,97.90
2019-05-21T07:15:56.712Z,97.80
2019-05-21T07:17:01.507Z,97.90
2019-05-21T07:18:05.740Z,97.90
2019-05-21T07:19:10.521Z,98.10
2019-05-21T07:20:14.773Z,98.10
2019-05-21T07:21:19.612Z,98.00
2019-05-21T07:22:23.849Z,97.90
2019-05-21T07:23:28.631Z,98.10
2019-05-21T07:24:32.881Z,97.90
2019-05-21T07:25:37.682Z,97.70
2019-05-21T07:26:41.832Z,97.90
2019-05-21T07:27:46.610Z,97.90
2019-05-21T07:28:51.513Z,97.90
2019-05-21T07:29:57.392Z,97.70
2019-05-21T07:31:01.663Z,97.80
2019-05-21T07:32:06.439Z,97.80
2019-05-21T07:33:10.737Z,97.70
2019-05-21T07:34:15.739Z,97.60
2019-05-21T07:35:19.958Z,97.80
2019-05-21T07:36:24.761Z,97.60
2019-05-21T07:37:29.071Z,97.80
2019-05-21T07:38:51.571Z,97.80
2019-05-21T07:39:39.866Z,97.70
2019-05-21T07:40:44.660Z,97.60
2019-05-21T07:41:48.915Z,97.80
2019-05-21T07:42:53.709Z,97.90
2019-05-21T07:43:57.931Z,97.80
2019-05-21T07:45:02.855Z,97.90
2019-05-21T07:46:07.207Z,97.90
2019-05-21T07:47:12.005Z,97.70
2019-05-21T07:48:16.233Z,97.80
2019-05-21T07:49:21.024Z,98.00
2019-05-21T07:50:25.278Z,98.20
2019-05-21T07:51:30.126Z,98.00
2019-05-21T07:52:34.368Z,98.00
2019-05-21T07:53:39.140Z,98.10
2019-05-21T07:54:43.363Z,98.10
2019-05-21T07:55:48.147Z,98.00
2019-05-21T07:56:52.399Z,97.90
2019-05-21T07:57:57.174Z,98.10
2019-05-21T07:59:01.515Z,97.90
2019-05-21T08:00:06.521Z,98.00
2019-05-21T08:01:10.801Z,98.00
2019-05-21T08:02:15.559Z,97.90
2019-05-21T08:03:19.880Z,98.00
2019-05-21T08:04:24.694Z,98.00
2019-05-21T08:05:28.918Z,98.00
2019-05-21T08:06:33.756Z,98.00
2019-05-21T08:07:37.961Z,98.10
2019-05-21T08:08:42.755Z,98.10
2019-05-21T08:09:46.983Z,98.20
2019-05-21T08:10:51.781Z,98.20
2019-05-21T08:11:56.015Z,98.10
2019-05-21T08:13:00.795Z,98.30
2019-05-21T08:14:05.125Z,98.30
2019-05-21T08:15:09.851Z,98.30
2019-05-21T08:16:14.104Z,98.40
2019-05-21T08:17:18.965Z,98.40
2019-05-21T08:18:23.149Z,98.40
2019-05-21T08:19:31.051Z,98.50
2019-05-21T08:20:33.808Z,98.50
2019-05-21T08:21:38.661Z,98.60
2019-05-21T08:22:42.898Z,98.70
2019-05-21T08:23:47.686Z,98.60
2019-05-21T08:24:51.894Z,98.60
2019-05-21T08:25:56.697Z,98.50
2019-05-21T08:27:01.063Z,98.70
2019-05-21T08:28:05.855Z,98.40
2019-05-21T08:29:10.130Z,98.30
2019-05-21T08:30:14.957Z,98.50
2019-05-21T08:31:19.174Z,98.50
2019-05-21T08:32:23.978Z,98.30
2019-05-21T08:33:28.200Z,98.40
2019-05-21T08:34:32.976Z,98.30
2019-05-21T08:35:37.207Z,98.40
2019-05-21T08:36:41.990Z,98.60
2019-05-21T08:37:46.316Z,98.20
2019-05-21T08:38:51.071Z,98.00
2019-05-21T08:39:55.264Z,98.20
2019-05-21T08:41:00.087Z,98.10
2019-05-21T08:42:04.355Z,98.10
2019-05-21T08:43:09.151Z,98.20
2019-05-21T08:44:13.395Z,98.10
2019-05-21T08:45:18.254Z,98.20
2019-05-21T08:46:22.568Z,98.20
2019-05-21T08:47:27.393Z,98.10
2019-05-21T08:48:31.631Z,98.10
2019-05-21T08:49:36.460Z,98.20
2019-05-21T08:50:41.305Z,98.20
2019-05-21T08:51:46.079Z,98.20
2019-05-21T08:52:50.336Z,98.20
2019-05-21T08:53:55.132Z,98.20
2019-05-21T08:54:59.354Z,98.20
2019-05-21T08:56:04.195Z,98.10
2019-05-21T08:57:08.416Z,98.10
2019-05-21T08:58:13.259Z,98.20
2019-05-21T08:59:17.515Z,98.30
2019-05-21T09:00:22.742Z,98.40
2019-05-21T09:01:27.112Z,98.40
2019-05-21T09:02:31.901Z,98.30
2019-05-21T09:03:36.125Z,98.30
2019-05-21T09:04:46.469Z,98.30
2019-05-21T09:05:46.773Z,98.50
2019-05-21T09:06:51.584Z,98.40
2019-05-21T09:07:55.976Z,98.30
2019-05-21T09:09:00.764Z,98.20
2019-05-21T09:10:05.399Z,98.30
2019-05-21T09:11:10.232Z,98.10
2019-05-21T09:12:14.482Z,98.50
2019-05-21T09:13:19.280Z,98.20
2019-05-21T09:14:23.505Z,98.20
2019-05-21T09:15:28.274Z,98.30
2019-05-21T09:16:32.632Z,98.40
2019-05-21T09:17:37.407Z,98.30
2019-05-21T09:18:41.679Z,98.20
2019-05-21T09:19:46.457Z,98.20
2019-05-21T09:20:50.710Z,98.20
2019-05-21T09:21:55.499Z,98.10
2019-05-21T09:22:59.759Z,98.30
2019-05-21T09:24:04.567Z,98.20
2019-05-21T09:25:08.786Z,98.10
2019-05-21T09:26:13.568Z,98.10
2019-05-21T09:27:17.787Z,98.20
2019-05-21T09:28:22.598Z,98.20
2019-05-21T09:29:26.746Z,98.20
2019-05-21T09:30:31.532Z,98.10
2019-05-21T09:31:35.759Z,98.00
2019-05-21T09:32:40.555Z,98.00
2019-05-21T09:33:44.808Z,98.10
2019-05-21T09:34:49.678Z,98.20
2019-05-21T09:35:54.110Z,98.10
2019-05-21T09:36:58.890Z,98.10
2019-05-21T09:38:03.114Z,98.10
2019-05-21T09:39:07.947Z,98.10
2019-05-21T09:40:12.191Z,98.00
2019-05-21T09:41:16.975Z,98.00
2019-05-21T09:42:21.192Z,98.10
2019-05-21T09:43:25.995Z,98.10
2019-05-21T09:44:30.246Z,98.30
2019-05-21T09:45:35.020Z,98.20
2019-05-21T09:46:39.238Z,98.20
2019-05-21T09:47:44.053Z,98.10
2019-05-21T09:48:48.266Z,98.10
2019-05-21T09:49:53.693Z,98.30
2019-05-21T09:50:57.955Z,98.40
2019-05-21T09:52:02.755Z,98.40
2019-05-21T09:53:06.985Z,98.30
2019-05-21T09:54:11.791Z,98.30
2019-05-21T09:55:16.027Z,98.30
2019-05-21T09:56:33.946Z,98.10
2019-05-21T09:57:44.286Z,98.20
2019-05-21T09:58:49.163Z,98.10
2019-05-21T09:59:59.302Z,98.30
2019-05-21T10:01:30.592Z,98.10
2019-05-21T10:02:34.940Z,97.90
2019-05-21T10:03:41.951Z,98.20
2019-05-21T10:04:46.216Z,98.10
2019-05-21T10:05:51.012Z,98.20
2019-05-21T10:06:55.229Z,98.00
2019-05-21T10:07:59.992Z,98.10
2019-05-21T10:09:06.571Z,98.00
2019-05-21T10:10:11.372Z,98.30
2019-05-21T10:11:15.607Z,98.10
2019-05-21T10:12:20.482Z,98.00
2019-05-21T10:13:24.826Z,97.90
2019-05-21T10:14:33.728Z,98.40
2019-05-21T10:15:35.514Z,98.20
2019-05-21T10:16:40.300Z,98.20
2019-05-21T10:17:44.566Z,98.20
2019-05-21T10:18:49.361Z,98.50
2019-05-21T10:19:53.632Z,98.30
2019-05-21T10:20:58.421Z,98.20
2019-05-21T10:22:02.807Z,98.40
2019-05-21T10:23:07.635Z,98.50
2019-05-21T10:24:11.876Z,98.70
2019-05-21T10:25:16.687Z,98.70
2019-05-21T10:26:20.907Z,98.60
2019-05-21T10:27:25.688Z,98.70
2019-05-21T10:28:29.919Z,98.70
2019-05-21T10:29:34.713Z,98.50
2019-05-21T10:30:38.977Z,98.70
2019-05-21T10:31:43.755Z,98.70
2019-05-21T10:32:47.991Z,98.80
2019-05-21T10:33:52.778Z,98.70
2019-05-21T10:34:57.041Z,98.50
2019-05-21T10:36:01.825Z,98.70
2019-05-21T10:37:06.048Z,98.60
2019-05-21T10:38:10.853Z,98.80
2019-05-21T10:39:15.348Z,99.10
2019-05-21T10:40:20.195Z,98.80
2019-05-21T10:41:24.427Z,98.80
2019-05-21T10:42:29.207Z,98.60
2019-05-21T10:43:33.436Z,98.70
2019-05-21T10:44:38.228Z,98.70
2019-05-21T10:45:42.490Z,98.60
2019-05-21T10:46:47.265Z,98.50
2019-05-21T10:47:51.504Z,98.40
2019-05-21T10:48:56.284Z,98.70
2019-05-21T10:50:00.537Z,98.40
2019-05-21T10:51:05.353Z,98.30
2019-05-21T10:52:09.572Z,98.40
2019-05-21T10:53:14.339Z,98.50
2019-05-21T10:54:18.607Z,98.50
2019-05-21T10:55:23.396Z,98.30
2019-05-21T10:56:27.634Z,98.50
2019-05-21T10:57:32.397Z,98.20
2019-05-21T10:58:36.626Z,98.20
2019-05-21T10:59:41.401Z,98.30
2019-05-21T11:00:47.289Z,98.20
2019-05-21T11:02:00.754Z,98.30
2019-05-21T11:03:12.254Z,98.50
2019-05-21T11:04:21.456Z,98.40
2019-05-21T11:05:32.660Z,98.40
2019-05-21T11:06:40.613Z,98.20
2019-05-21T11:07:44.847Z,98.30
2019-05-21T11:08:49.636Z,98.40
2019-05-21T11:09:54.041Z,98.10
2019-05-21T11:10:58.831Z,98.30
2019-05-21T11:12:03.046Z,98.20
2019-05-21T11:13:07.828Z,97.90
2019-05-21T11:14:12.064Z,97.60
2019-05-21T11:15:17.191Z,97.60
2019-05-21T11:16:21.456Z,97.80
2019-05-21T11:17:26.254Z,97.70
2019-05-21T11:18:30.530Z,97.80
2019-05-21T11:19:35.474Z,97.80
2019-05-21T11:20:39.890Z,97.60
2019-05-21T11:21:44.712Z,97.60
2019-05-21T11:22:48.930Z,97.80
2019-05-21T11:23:53.971Z,97.80
2019-05-21T11:24:58.171Z,98.00
2019-05-21T11:26:03.198Z,97.60
2019-05-21T11:27:07.608Z,97.60
2019-05-21T11:28:12.386Z,97.70
2019-05-21T11:29:16.600Z,97.80
2019-05-21T11:30:21.386Z,97.60
2019-05-21T11:31:25.727Z,97.60
2019-05-21T11:32:30.521Z,97.70
2019-05-21T11:33:34.794Z,97.70
2019-05-21T11:34:39.610Z,97.30
2019-05-21T11:35:43.830Z,97.20
2019-05-21T11:36:48.714Z,97.20
2019-05-21T11:37:52.941Z,97.00
2019-05-21T11:38:57.932Z,97.60
2019-05-21T11:40:02.143Z,97.30
2019-05-21T11:41:06.923Z,97.20
2019-05-21T11:42:11.327Z,97.10
2019-05-21T11:43:16.091Z,97.30
2019-05-21T11:44:20.318Z,97.20
2019-05-21T11:45:32.196Z,97.20
2019-05-21T11:46:31.025Z,96.80
2019-05-21T11:47:35.850Z,96.90
2019-05-21T11:48:40.035Z,97.00
2019-05-21T11:49:44.822Z,96.90
2019-05-21T11:50:49.044Z,97.10
2019-05-21T11:51:53.879Z,97.00
2019-05-21T11:52:58.106Z,97.10
2019-05-21T11:54:02.881Z,97.00
2019-05-21T11:55:07.510Z,97.10
2019-05-21T11:56:12.318Z,97.20
2019-05-21T11:57:16.604Z,97.10
2019-05-21T11:58:21.394Z,96.90
2019-05-21T11:59:25.607Z,97.10
2019-05-21T12:00:30.383Z,97.00
2019-05-21T12:01:34.615Z,97.00
2019-05-21T12:02:39.556Z,96.80
2019-05-21T12:03:43.789Z,96.60
2019-05-21T12:04:48.578Z,96.50
2019-05-21T12:05:53.042Z,96.60
2019-05-21T12:06:57.832Z,96.40
2019-05-21T12:08:02.075Z,96.60
2019-05-21T12:09:08.553Z,96.80
2019-05-21T12:10:12.958Z,96.60
2019-05-21T12:11:17.744Z,96.60
2019-05-21T12:12:22.006Z,96.40
2019-05-21T12:13:26.810Z,96.50
2019-05-21T12:14:31.036Z,96.50
2019-05-21T12:15:35.922Z,96.50
2019-05-21T12:16:40.172Z,96.10
2019-05-21T12:17:44.975Z,96.00
2019-05-21T12:18:49.209Z,96.00
2019-05-21T12:19:53.990Z,95.90
2019-05-21T12:20:58.234Z,95.90
2019-05-21T12:22:03.302Z,95.80
2019-05-21T12:23:07.548Z,96.00
2019-05-21T12:24:12.563Z,95.90
2019-05-21T12:25:16.815Z,96.30
2019-05-21T12:26:21.601Z,95.90
2019-05-21T12:27:26.311Z,95.70
2019-05-21T12:28:31.097Z,95.70
2019-05-21T12:29:35.616Z,95.40
2019-05-21T12:30:40.390Z,95.90
2019-05-21T12:31:44.760Z,95.60
2019-05-21T12:32:49.602Z,95.70
2019-05-21T12:33:53.835Z,95.60
2019-05-21T12:34:58.631Z,95.60
2019-05-21T12:36:03.034Z,95.60
2019-05-21T12:37:07.836Z,95.40
2019-05-21T12:38:12.163Z,95.30
2019-05-21T12:39:17.234Z,95.50
2019-05-21T12:40:21.472Z,95.40
2019-05-21T12:41:26.243Z,95.70
2019-05-21T12:42:30.604Z,95.70
2019-05-21T12:43:35.406Z,95.20
2019-05-21T12:44:39.699Z,95.40
2019-05-21T12:45:44.479Z,95.10
2019-05-21T12:46:48.823Z,94.90
2019-05-21T12:47:53.696Z,95.00
2019-05-21T12:48:57.924Z,95.00
2019-05-21T12:50:02.804Z,95.20
2019-05-21T12:51:07.079Z,94.80
2019-05-21T12:52:11.987Z,95.10
2019-05-21T12:53:16.814Z,95.20
2019-05-21T12:54:22.078Z,94.80
2019-05-21T12:55:26.365Z,95.00
2019-05-21T12:56:31.165Z,94.50
2019-05-21T12:57:35.390Z,94.80
2019-05-21T12:58:40.944Z,94.00
2019-05-21T12:59:45.175Z,93.60
2019-05-21T13:00:49.960Z,93.90
2019-05-21T13:01:54.644Z,93.40
2019-05-21T13:02:59.485Z,93.50
2019-05-21T13:04:03.880Z,92.90
2019-05-21T13:05:11.288Z,93.40
2019-05-21T13:06:14.750Z,92.90
2019-05-21T13:07:19.542Z,92.90
2019-05-21T13:08:24.020Z,92.90
2019-05-21T13:09:32.887Z,92.80
2019-05-21T13:10:34.867Z,93.00
2019-05-21T13:11:39.656Z,92.40
2019-05-21T13:12:43.922Z,92.20
2019-05-21T13:13:48.750Z,91.70
2019-05-21T13:14:53.048Z,91.70
2019-05-21T13:15:57.830Z,91.70
2019-05-21T13:17:02.047Z,92.00
2019-05-21T13:18:06.949Z,91.70
2019-05-21T13:19:11.470Z,91.40
2019-05-21T13:20:16.708Z,91.30
2019-05-21T13:21:20.964Z,91.40
2019-05-21T13:22:25.986Z,91.40
2019-05-21T13:23:30.210Z,91.40
2019-05-21T13:24:35.013Z,91.40
2019-05-21T13:25:39.385Z,91.60
2019-05-21T13:26:44.184Z,91.70
2019-05-21T13:27:48.421Z,91.70
2019-05-21T13:28:54.201Z,91.50
2019-05-21T13:29:58.575Z,91.70
2019-05-21T13:31:03.367Z,91.50
2019-05-21T13:32:07.582Z,91.50
2019-05-21T13:33:13.300Z,91.10
2019-05-21T13:34:17.483Z,91.30
2019-05-21T13:35:22.284Z,91.20
2019-05-21T13:36:26.531Z,91.50
2019-05-21T13:37:31.395Z,91.40
2019-05-21T13:38:35.711Z,91.70
2019-05-21T13:39:49.422Z,91.50
2019-05-21T13:40:47.804Z,91.20
2019-05-21T13:41:52.578Z,91.60
2019-05-21T13:42:56.987Z,91.70
2019-05-21T13:44:02.129Z,91.80
2019-05-21T13:45:07.118Z,91.70
2019-05-21T13:46:11.866Z,91.80
2019-05-21T13:47:16.196Z,91.60
2019-05-21T13:48:20.986Z,91.70
2019-05-21T13:49:25.244Z,91.60
2019-05-21T13:50:30.007Z,91.60
2019-05-21T13:51:34.268Z,91.60
2019-05-21T13:52:39.044Z,91.40
2019-05-21T13:53:43.470Z,91.80
2019-05-21T13:54:48.368Z,91.70
2019-05-21T13:55:52.587Z,91.90
2019-05-21T13:56:57.374Z,91.90
2019-05-21T13:58:01.597Z,92.00
2019-05-21T13:59:06.683Z,91.90
2019-05-21T14:00:13.635Z,91.90
2019-05-21T14:01:18.895Z,91.90